Time;durP1;ratioP1;P1;durP2;ratioP2;P2;SDS_P1;SDS_P2;PMS_P1;PMS_P2;Temp;Humidity;BMP_temperature;BMP_pressure;BME280_temperature;BME280_humidity;BME280_pressure;Samples;Min_cycle;Max_cycle;Signal;HPM_P1;HPM_P2
2023/02/21 02:14:13;;;;;;;10.67;5.97;;;5.20;94.10;;;5.34;79.15;98290.22;5060180;28;20572;-70
2023/02/21 02:16:46;;;;;;;9.23;6.40;;;5.20;93.70;;;5.37;79.22;98297.91;5046386;28;20456;-70
2023/02/21 02:20:03;;;;;;;9.60;5.37;;;5.20;93.50;;;5.43;78.77;98296.38;5062321;28;20802;-70
2023/02/21 02:22:52;;;;;;;9.03;5.30;;;5.30;93.40;;;5.46;79.24;98293.31;5004664;28;20488;-72
2023/02/21 02:25:38;;;;;;;13.10;5.27;;;5.40;93.50;;;5.47;79.11;98289.63;5055039;28;20519;-70
2023/02/21 02:28:42;;;;;;;11.47;5.57;;;5.40;92.90;;;5.48;79.08;98292.16;5038516;28;20458;-70
2023/02/21 02:32:06;;;;;;;9.67;5.60;;;5.50;93.00;;;5.52;79.12;98290.78;5059174;28;20876;-71
2023/02/21 02:34:58;;;;;;;7.07;4.60;;;5.50;92.80;;;5.45;79.58;98294.34;4978541;28;20461;-70
2023/02/21 02:37:33;;;;;;;10.33;5.30;;;5.50;92.50;;;5.46;79.80;98287.97;5060680;28;20829;-71
2023/02/21 02:40:09;;;;;;;7.10;5.60;;;5.40;92.80;;;5.09;78.95;98215.31;5050663;28;20542;-70
2023/02/21 02:42:55;;;;;;;6.90;5.13;;;5.50;92.50;;;5.35;79.43;98284.66;5060193;28;20774;-72
2023/02/21 02:45:30;;;;;;;7.03;4.70;;;5.40;92.60;;;5.32;79.94;98285.03;5037137;28;20476;-71
2023/02/21 02:48:05;;;;;;;6.40;4.63;;;5.20;93.40;;;5.32;80.19;98284.19;5045736;28;20542;-70
2023/02/21 02:50:36;;;;;;;11.87;5.77;;;5.20;93.50;;;5.35;79.30;98290.03;5046363;28;20504;-71
2023/02/21 02:53:04;;;;;;;7.67;4.90;;;5.20;94.40;;;5.49;79.29;98291.13;5045408;28;20446;-71
2023/02/21 02:55:40;;;;;;;8.13;5.50;;;5.40;93.50;;;5.45;79.13;98294.34;5065821;28;20815;-71
2023/02/21 02:58:10;;;;;;;9.20;5.27;;;5.40;93.00;;;5.25;79.13;98295.59;5047345;28;20493;-71
2023/02/21 03:00:45;;;;;;;9.77;5.27;;;5.30;92.70;;;5.23;80.04;98299.44;5050722;28;20790;-70
2023/02/21 03:03:51;;;;;;;7.77;4.87;;;5.20;93.20;;;5.29;79.44;98306.81;5040393;28;20476;-70
2023/02/21 03:06:31;;;;;;;12.97;5.80;;;5.20;93.80;;;5.27;80.39;98305.31;5055422;28;20576;-71
2023/02/21 03:09:09;;;;;;;9.30;5.10;;;5.20;94.40;;;5.41;79.64;98298.38;5059573;28;20813;-71
2023/02/21 03:11:43;;;;;;;7.60;5.20;;;5.30;93.60;;;5.29;79.79;98306.81;5047174;28;20449;-70
2023/02/21 03:14:18;;;;;;;6.83;5.27;;;5.20;93.30;;;5.26;79.48;98307.16;5048554;28;20530;-71
2023/02/21 03:16:50;;;;;;;10.10;5.60;;;5.10;93.80;;;5.29;79.14;98303.28;5049671;28;20460;-69
2023/02/21 03:19:20;;;;;;;8.87;5.10;;;5.10;94.10;;;5.25;79.75;98306.31;5047693;28;20446;-70
2023/02/21 03:21:53;;;;;;;8.43;5.20;;;5.10;94.60;;;5.24;79.97;98298.47;5040095;28;20458;-70
2023/02/21 03:24:23;;;;;;;12.90;5.70;;;5.10;94.50;;;5.28;79.49;98305.13;5042124;28;20464;-70
2023/02/21 03:26:56;;;;;;;8.53;5.63;;;5.10;94.80;;;5.33;79.38;98318.84;5037597;28;20490;-70
2023/02/21 03:29:24;;;;;;;6.63;5.30;;;5.20;93.90;;;5.41;80.10;98306.44;5057759;28;20848;-71
2023/02/21 03:31:58;;;;;;;10.67;5.10;;;5.20;94.50;;;5.61;79.58;98296.06;5044804;28;20455;-70
2023/02/21 03:34:27;;;;;;;6.57;4.80;;;5.50;94.10;;;5.75;78.54;98299.88;5043584;28;20512;-71
2023/02/21 03:36:56;;;;;;;5.80;4.70;;;5.60;93.10;;;5.86;77.71;98299.47;5034799;28;20495;-70
2023/02/21 03:39:23;;;;;;;9.00;5.23;;;5.80;91.80;;;6.00;78.42;98292.47;5050543;28;20535;-70
2023/02/21 03:41:50;;;;;;;8.50;4.80;;;6.00;91.50;;;6.04;78.52;98301.03;5054522;28;20459;-70
2023/02/21 03:44:17;;;;;;;6.53;5.30;;;6.20;90.60;;;6.12;77.55;98297.47;5038221;28;20457;-70
2023/02/21 03:46:44;;;;;;;7.90;5.13;;;6.20;90.60;;;6.34;76.71;98293.09;5041373;28;20485;-70
2023/02/21 03:49:12;;;;;;;7.43;5.43;;;6.40;90.20;;;6.35;76.58;98295.56;5043126;28;20459;-70
2023/02/21 03:51:39;;;;;;;8.63;5.30;;;6.40;89.60;;;6.40;76.56;98291.53;5044694;28;20454;-70
2023/02/21 03:54:07;;;;;;;7.20;4.90;;;6.50;88.90;;;6.28;76.10;98293.78;5049300;28;20524;-70
2023/02/21 03:56:35;;;;;;;7.87;5.30;;;6.50;87.90;;;6.50;74.92;98297.44;5048837;28;20528;-71
2023/02/21 03:59:02;;;;;;;8.70;5.20;;;6.60;86.90;;;6.48;74.65;98288.75;5060819;28;20771;-70
2023/02/21 04:01:29;;;;;;;7.43;4.73;;;6.70;86.60;;;6.47;74.72;98301.34;5058354;28;20933;-72
2023/02/21 04:03:56;;;;;;;7.73;4.70;;;6.70;86.10;;;6.16;74.61;98237.06;5052156;28;20448;-71
2023/02/21 04:06:23;;;;;;;8.33;5.30;;;6.70;86.00;;;6.63;74.18;98297.66;5047720;28;20524;-72
2023/02/21 04:08:51;;;;;;;10.60;5.57;;;6.70;86.00;;;6.62;74.46;98292.50;5062218;28;20459;-72
2023/02/21 04:11:21;;;;;;;7.60;5.17;;;6.80;85.80;;;6.63;74.15;98294.16;5067394;28;20475;-71
2023/02/21 04:13:48;;;;;;;12.33;5.50;;;6.80;85.40;;;6.57;74.17;98294.88;5060106;28;20769;-71
2023/02/21 04:16:15;;;;;;;7.60;5.10;;;6.80;85.00;;;6.29;73.96;98214.94;5050283;28;20470;-72
2023/02/21 04:18:42;;;;;;;5.27;4.40;;;6.80;85.30;;;6.86;73.06;98291.41;5060697;28;20776;-71
2023/02/21 04:21:09;;;;;;;10.60;5.20;;;6.90;84.90;;;6.76;73.22;98286.31;5051886;28;20870;-70
2023/02/21 04:23:37;;;;;;;6.97;4.70;;;6.90;84.60;;;6.80;72.92;98292.97;5052283;28;20451;-71
2023/02/21 04:26:04;;;;;;;6.10;5.10;;;6.90;84.30;;;6.49;73.24;98245.63;5051853;28;20449;-71
2023/02/21 04:28:33;;;;;;;7.20;5.27;;;6.90;84.40;;;6.86;72.75;98290.56;5052653;28;20453;-71
2023/02/21 04:31:00;;;;;;;5.80;4.77;;;6.90;84.40;;;6.53;72.62;98254.16;5065383;28;20462;-72
2023/02/21 04:33:27;;;;;;;7.57;4.13;;;6.90;84.00;;;7.02;72.25;98290.38;5067973;28;20471;-71
2023/02/21 04:35:54;;;;;;;11.30;5.40;;;7.00;84.30;;;6.97;71.88;98291.94;5051365;28;20456;-70
2023/02/21 04:38:22;;;;;;;7.10;4.90;;;7.00;83.80;;;6.83;72.27;98278.34;5052255;28;20909;-71
2023/02/21 04:40:49;;;;;;;7.57;4.90;;;7.00;83.70;;;6.72;72.78;98268.88;5051826;28;20791;-72
2023/02/21 04:43:17;;;;;;;6.27;4.83;;;7.00;84.00;;;6.91;73.06;98280.09;5068720;28;20461;-72
2023/02/21 04:45:45;;;;;;;7.33;4.87;;;7.00;84.10;;;6.92;72.35;98273.72;5065585;28;20453;-71
2023/02/21 04:48:14;;;;;;;9.20;5.00;;;7.00;83.80;;;6.79;72.61;98264.44;5053286;28;20483;-71
2023/02/21 04:50:41;;;;;;;6.87;4.90;;;7.00;83.80;;;6.86;72.59;98272.59;5053599;28;20463;-71
2023/02/21 04:53:09;;;;;;;8.30;4.87;;;7.00;83.80;;;6.97;72.45;98262.38;5059439;28;20462;-71
2023/02/21 04:55:36;;;;;;;8.30;6.27;;;7.00;83.70;;;6.97;72.04;98265.91;5049716;28;20468;-71
2023/02/21 04:58:04;;;;;;;9.03;5.13;;;7.00;83.40;;;7.18;70.90;98261.63;5054384;28;20480;-70
2023/02/21 05:00:31;;;;;;;8.60;5.67;;;7.10;83.20;;;7.20;71.10;98259.59;5049679;28;20454;-72
2023/02/21 05:03:00;;;;;;;9.27;4.70;;;7.10;83.30;;;7.07;71.47;98260.25;5052526;28;21043;-71
2023/02/21 05:05:27;;;;;;;7.83;4.70;;;7.10;83.40;;;7.18;71.55;98272.38;5045001;28;20465;-71
2023/02/21 05:07:55;;;;;;;7.43;4.97;;;7.00;83.50;;;7.24;70.93;98258.22;5041364;28;20498;-71
2023/02/21 05:10:22;;;;;;;8.33;5.63;;;7.10;83.10;;;7.14;71.29;98261.19;5043049;28;20452;-71
2023/02/21 05:12:49;;;;;;;7.70;4.90;;;7.10;83.20;;;7.17;71.60;98260.81;5067251;28;20482;-71
2023/02/21 05:15:17;;;;;;;12.13;6.23;;;7.10;83.50;;;7.19;71.36;98250.69;5064311;28;20463;-71
2023/02/21 05:17:45;;;;;;;11.40;5.13;;;7.10;83.40;;;7.14;71.98;98260.34;5021698;28;20467;-71
2023/02/21 05:20:13;;;;;;;11.03;5.20;;;7.10;83.40;;;7.11;71.71;98260.72;5024898;28;20452;-71
2023/02/21 05:22:42;;;;;;;9.53;5.43;;;7.10;83.90;;;7.01;72.10;98256.47;5047536;28;20468;-69
2023/02/21 05:25:15;;;;;;;9.00;5.77;;;7.10;83.40;;;7.05;72.23;98251.56;5053553;28;20533;-71
2023/02/21 05:27:43;;;;;;;8.10;5.87;;;7.10;83.60;;;7.04;72.03;98250.69;5045606;28;21007;-71
2023/02/21 05:30:12;;;;;;;9.77;5.70;;;7.10;83.40;;;7.16;71.99;98244.88;5050861;28;20484;-67
2023/02/21 05:32:40;;;;;;;8.30;5.33;;;7.20;83.70;;;7.06;71.83;98253.22;5040042;28;20513;-67
2023/02/21 05:35:08;;;;;;;8.43;5.40;;;7.20;83.50;;;7.11;71.86;98249.97;5053539;28;20557;-70
2023/02/21 05:37:37;;;;;;;10.30;6.10;;;7.10;83.30;;;7.03;72.51;98251.72;5056036;28;20550;-68
2023/02/21 05:40:08;;;;;;;8.80;5.83;;;7.10;83.60;;;6.98;72.57;98250.66;5041401;28;20453;-68
2023/02/21 05:42:35;;;;;;;12.37;6.60;;;7.10;83.60;;;7.05;72.29;98252.41;5057213;28;20546;-68
2023/02/21 05:45:05;;;;;;;11.47;6.00;;;7.10;83.70;;;7.22;71.95;98246.81;5061981;28;20488;-66
2023/02/21 05:47:34;;;;;;;10.93;6.20;;;7.20;83.60;;;7.02;72.24;98239.31;5048497;28;20811;-67
2023/02/21 05:50:01;;;;;;;8.50;5.50;;;7.20;83.60;;;7.22;71.61;98250.31;5059204;28;20948;-67
2023/02/21 05:52:29;;;;;;;9.30;5.33;;;7.20;83.40;;;7.32;71.15;98252.69;5046154;28;20539;-67
2023/02/21 05:54:58;;;;;;;12.30;6.23;;;7.30;83.30;;;7.27;71.56;98255.13;5045875;28;21326;-68
2023/02/21 05:57:25;;;;;;;6.97;5.60;;;7.30;83.30;;;7.34;71.53;98245.28;5057047;28;20453;-68
2023/02/21 05:59:52;;;;;;;6.93;5.07;;;7.40;83.20;;;7.30;71.62;98243.19;5039851;28;20455;-68
2023/02/21 06:02:22;;;;;;;7.70;5.90;;;7.30;83.10;;;7.25;71.78;98245.59;5055448;28;20472;-69
2023/02/21 06:04:49;;;;;;;11.73;6.37;;;7.30;83.30;;;7.34;71.49;98242.59;5034920;28;20483;-68
2023/02/21 06:07:17;;;;;;;9.90;6.57;;;7.40;83.10;;;7.17;72.03;98260.81;5036072;28;20480;-70
2023/02/21 06:09:45;;;;;;;8.80;6.07;;;7.30;83.20;;;7.29;71.54;98250.41;5056033;28;20476;-70
2023/02/21 06:12:13;;;;;;;11.33;7.20;;;7.40;83.30;;;7.39;71.28;98241.22;5043299;28;20463;-70
2023/02/21 06:14:40;;;;;;;10.00;6.10;;;7.30;83.30;;;7.27;71.84;98233.63;5040252;28;20510;-70
2023/02/21 06:17:07;;;;;;;9.53;6.83;;;7.40;83.30;;;7.33;71.89;98246.31;5054914;28;20451;-71
2023/02/21 06:19:35;;;;;;;12.33;8.10;;;7.40;83.40;;;7.41;71.63;98241.84;5042793;28;20463;-70
2023/02/21 06:22:02;;;;;;;7.90;6.50;;;7.40;83.20;;;7.58;70.98;98240.59;5052314;28;20454;-76
2023/02/21 06:24:29;;;;;;;8.67;6.10;;;7.50;83.20;;;7.72;70.46;98238.84;5041293;28;20529;-72
2023/02/21 06:26:56;;;;;;;9.20;7.00;;;7.60;83.00;;;7.57;70.78;98244.31;5041725;28;20459;-71
2023/02/21 06:29:25;;;;;;;9.83;6.67;;;7.60;82.90;;;7.81;69.84;98253.03;5052304;28;20536;-72
2023/02/21 06:31:57;;;;;;;9.67;6.77;;;7.70;82.60;;;7.53;69.97;98209.91;5041128;28;20526;-71
2023/02/21 06:34:25;;;;;;;9.33;6.90;;;7.80;82.50;;;7.68;70.91;98252.91;5045674;28;20946;-71
2023/02/21 06:36:52;;;;;;;9.90;6.50;;;7.70;82.70;;;7.84;70.40;98255.34;5056545;28;20535;-70
2023/02/21 06:39:19;;;;;;;9.47;6.83;;;7.80;82.40;;;7.38;70.25;98197.34;5046280;28;20578;-71
2023/02/21 06:41:47;;;;;;;9.77;5.73;;;7.80;82.40;;;7.86;71.05;98247.91;5046176;28;20913;-71
2023/02/21 06:44:14;;;;;;;10.73;6.50;;;7.80;82.70;;;7.71;70.52;98255.22;5038259;28;20543;-70
2023/02/21 06:46:43;;;;;;;9.10;5.97;;;7.80;82.40;;;7.87;69.79;98244.19;5040399;28;20453;-70
2023/02/21 06:49:12;;;;;;;10.30;6.80;;;7.80;82.60;;;8.05;69.64;98235.69;5064992;28;20483;-69
2023/02/21 06:51:41;;;;;;;11.10;6.87;;;7.90;82.50;;;8.03;69.36;98247.66;5033412;28;20462;-70
2023/02/21 06:54:09;;;;;;;10.53;7.00;;;8.00;82.30;;;8.05;70.23;98250.97;5064309;28;20452;-72
2023/02/21 06:56:37;;;;;;;9.00;6.40;;;8.00;82.30;;;8.28;68.83;98247.25;5042110;28;20460;-71
2023/02/21 06:59:05;;;;;;;8.83;6.77;;;8.20;82.00;;;8.13;69.46;98248.16;5047726;28;20457;-70
2023/02/21 07:01:32;;;;;;;10.10;6.97;;;8.20;81.80;;;8.29;68.46;98252.41;5033023;28;20455;-71
2023/02/21 07:04:01;;;;;;;10.60;7.40;;;8.20;81.50;;;8.17;68.82;98260.19;5042827;28;20454;-71
2023/02/21 07:06:28;;;;;;;9.53;6.63;;;8.20;81.40;;;8.20;69.18;98254.41;5044454;28;20943;-71
2023/02/21 07:08:55;;;;;;;12.30;6.17;;;8.20;81.40;;;8.26;68.91;98257.34;5044332;28;21016;-71
2023/02/21 07:11:23;;;;;;;12.90;7.00;;;8.30;81.40;;;8.07;68.63;98240.84;5050991;28;20455;-72
2023/02/21 07:13:50;;;;;;;10.57;6.57;;;8.30;81.10;;;8.32;68.61;98262.78;5047964;28;20455;-71
2023/02/21 07:16:18;;;;;;;10.77;5.70;;;8.40;81.40;;;8.29;69.04;98267.75;5046447;28;20577;-71
2023/02/21 07:18:46;;;;;;;9.37;6.50;;;8.40;81.30;;;8.10;68.98;98259.28;5063747;28;20458;-70
2023/02/21 07:21:15;;;;;;;13.30;7.17;;;8.30;81.20;;;8.03;69.77;98263.78;5043644;28;20511;-71
2023/02/21 07:23:43;;;;;;;11.87;6.77;;;8.20;81.40;;;7.95;70.13;98256.69;5058420;28;20524;-72
2023/02/21 07:26:11;;;;;;;9.77;7.23;;;8.10;81.60;;;7.94;69.84;98268.47;5044590;28;20462;-71
2023/02/21 07:28:38;;;;;;;9.60;6.70;;;8.10;81.60;;;8.14;69.12;98268.66;5047317;28;20470;-70
2023/02/21 07:31:06;;;;;;;11.33;7.03;;;8.20;81.50;;;8.31;69.02;98273.78;5063596;28;20453;-71
2023/02/21 07:33:34;;;;;;;10.10;7.40;;;8.30;81.20;;;7.97;69.48;98275.34;5047069;28;20750;-72
2023/02/21 07:36:01;;;;;;;10.13;7.77;;;8.20;81.00;;;8.21;68.36;98266.84;5042880;28;20468;-70
2023/02/21 07:38:31;;;;;;;12.00;7.00;;;8.30;81.30;;;8.44;68.11;98267.66;5036443;28;20514;-70
2023/02/21 07:41:02;;;;;;;9.23;6.90;;;8.50;81.00;;;8.53;67.99;98279.13;5046977;28;20456;-71
2023/02/21 07:43:31;;;;;;;9.90;6.67;;;8.60;81.00;;;8.46;68.10;98277.19;5042626;28;20462;-71
2023/02/21 07:45:58;;;;;;;9.00;7.57;;;8.60;80.60;;;8.83;67.61;98281.63;5037036;28;20464;-71
2023/02/21 07:48:25;;;;;;;10.30;7.13;;;8.80;80.60;;;9.07;66.90;98278.44;5048295;28;20986;-71
2023/02/21 07:50:53;;;;;;;11.80;6.70;;;9.00;80.50;;;9.42;65.13;98292.91;5037356;28;20468;-72
2023/02/21 07:53:20;;;;;;;11.70;8.00;;;9.20;80.10;;;9.70;64.00;98284.69;5060089;28;20871;-71
2023/02/21 07:55:49;;;;;;;9.40;7.90;;;9.50;79.30;;;9.85;63.55;98283.69;5044350;28;21032;-72
2023/02/21 07:58:16;;;;;;;13.30;7.30;;;9.60;79.10;;;9.79;64.13;98293.47;5051938;28;20450;-70
2023/02/21 08:00:44;;;;;;;10.50;6.43;;;9.70;78.80;;;9.53;64.18;98294.19;5041925;28;20489;-71
2023/02/21 08:03:13;;;;;;;14.93;8.70;;;9.50;78.40;;;9.24;65.47;98307.78;5072645;28;20489;-71
2023/02/21 08:05:41;;;;;;;12.20;7.80;;;9.30;78.80;;;8.98;66.35;98300.38;5048699;28;20993;-72
2023/02/21 08:08:08;;;;;;;9.80;7.20;;;9.00;79.10;;;9.00;66.57;98296.44;5047742;28;20588;-71
2023/02/21 08:10:36;;;;;;;11.23;8.10;;;9.00;79.50;;;8.77;67.53;98296.72;5045560;28;20516;-71
2023/02/21 08:13:07;;;;;;;11.23;7.13;;;8.90;79.60;;;8.88;66.85;98295.34;5063078;28;21133;-70
2023/02/21 08:15:34;;;;;;;8.60;6.97;;;8.80;79.90;;;9.03;66.60;98295.22;5061353;28;20437;-70
2023/02/21 08:18:01;;;;;;;13.03;8.73;;;8.90;79.80;;;8.77;66.76;98297.56;5048762;28;20515;-70
2023/02/21 08:20:28;;;;;;;11.50;7.20;;;8.80;79.80;;;8.86;67.27;98294.69;5040353;28;20471;-70
2023/02/21 08:22:55;;;;;;;10.23;8.87;;;8.90;79.90;;;8.78;67.70;98295.66;5041069;28;20536;-71
2023/02/21 08:25:23;;;;;;;10.27;7.50;;;8.90;79.90;;;8.93;67.44;98300.97;5047581;28;20454;-72
2023/02/21 08:27:53;;;;;;;11.83;7.60;;;8.90;80.00;;;8.84;67.18;98303.00;5063323;28;20463;-72
2023/02/21 08:30:23;;;;;;;14.47;7.60;;;8.90;80.00;;;8.86;67.08;98305.47;5047864;28;20453;-70
2023/02/21 08:32:51;;;;;;;11.10;7.30;;;8.90;79.90;;;8.93;67.04;98320.66;5063789;28;20453;-71
2023/02/21 08:35:19;;;;;;;10.67;8.00;;;8.90;80.00;;;8.96;66.89;98300.56;5042726;28;20464;-70
2023/02/21 08:37:49;;;;;;;11.43;8.13;;;9.00;79.80;;;9.14;66.72;98324.31;5046799;28;20468;-72
2023/02/21 08:40:20;;;;;;;12.97;8.53;;;9.10;79.60;;;9.13;66.43;98314.56;5043257;28;20561;-70
2023/02/21 08:42:51;;;;;;;12.50;7.00;;;9.20;79.60;;;9.37;66.15;98325.06;5057953;28;20573;-71
2023/02/21 08:45:24;;;;;;;12.23;7.10;;;9.30;79.40;;;9.36;65.56;98329.59;5044019;28;20464;-70
2023/02/21 08:47:53;;;;;;;10.50;6.80;;;9.40;79.20;;;9.56;64.96;98332.41;5049244;28;20472;-71
2023/02/21 08:50:22;;;;;;;10.50;7.50;;;9.60;79.00;;;9.84;64.57;98317.97;5056692;28;20451;-71
2023/02/21 08:52:51;;;;;;;10.10;7.20;;;9.80;79.00;;;10.02;63.67;98335.44;5037202;28;20447;-71
2023/02/21 08:55:19;;;;;;;11.20;7.00;;;10.00;77.70;;;9.62;63.95;98261.44;5055310;28;20534;-72
2023/02/21 08:57:49;;;;;;;9.00;6.70;;;10.10;77.00;;;10.28;62.87;98331.16;5052020;28;21145;-71
2023/02/21 09:00:18;;;;;;;12.17;6.50;;;10.30;76.70;;;10.58;61.80;98333.47;5043551;28;20879;-70
2023/02/21 09:02:49;;;;;;;10.40;6.60;;;10.50;76.60;;;10.54;62.35;98340.31;5040441;28;20961;-70
2023/02/21 09:05:22;;;;;;;10.43;6.80;;;10.50;76.20;;;10.78;61.95;98344.28;5040074;28;20461;-70
2023/02/21 09:07:50;;;;;;;9.80;6.70;;;10.70;76.10;;;11.00;60.75;98347.59;5044946;28;20550;-70
2023/02/21 09:10:18;;;;;;;9.60;6.67;;;10.90;75.80;;;11.30;59.80;98341.72;5058295;28;20878;-71
2023/02/21 09:12:46;;;;;;;10.13;6.50;;;11.20;74.90;;;11.48;59.01;98342.91;5040515;28;20811;-70
2023/02/21 09:15:15;;;;;;;19.60;6.80;;;11.40;74.60;;;11.77;58.13;98346.13;5043798;28;20457;-71
2023/02/21 09:17:43;;;;;;;8.17;5.93;;;11.60;73.90;;;11.73;58.99;98344.88;5057748;28;20463;-70
2023/02/21 09:20:18;;;;;;;8.60;6.87;;;11.70;73.80;;;11.51;59.56;98347.88;5058557;28;20542;-71
2023/02/21 09:22:46;;;;;;;7.37;5.83;;;11.70;73.50;;;11.96;58.12;98346.22;5036850;28;20471;-69
2023/02/21 09:25:14;;;;;;;7.80;6.63;;;11.80;73.50;;;11.90;57.60;98277.53;5046291;28;20466;-71
2023/02/21 09:27:41;;;;;;;10.17;6.27;;;12.10;73.30;;;12.35;57.45;98325.38;5049029;28;20522;-70
2023/02/21 09:30:13;;;;;;;8.67;6.30;;;12.30;73.20;;;12.30;57.63;98338.75;5044349;28;21337;-70
2023/02/21 09:32:41;;;;;;;8.77;6.20;;;12.40;72.60;;;12.52;57.03;98336.53;5051286;28;20444;-69
2023/02/21 09:35:12;;;;;;;10.20;6.57;;;12.40;72.50;;;12.69;56.65;98336.81;5044485;28;20521;-71
2023/02/21 09:37:40;;;;;;;8.07;6.07;;;12.50;72.30;;;12.89;55.92;98336.66;5043237;28;20805;-69
2023/02/21 09:40:18;;;;;;;8.67;6.13;;;12.70;71.80;;;12.86;56.05;98330.81;5041765;28;20457;-71
2023/02/21 09:42:46;;;;;;;7.43;6.00;;;12.80;71.50;;;12.87;56.50;98332.47;5041183;28;20539;-71
2023/02/21 09:45:18;;;;;;;8.80;6.83;;;12.80;71.60;;;13.10;55.79;98325.56;5053161;28;20461;-72
2023/02/21 09:47:52;;;;;;;8.50;6.37;;;13.00;71.50;;;12.84;56.57;98330.22;5046797;28;21040;-71
2023/02/21 09:50:29;;;;;;;8.10;6.10;;;12.90;71.40;;;12.94;56.51;98327.00;5043307;28;20457;-71
2023/02/21 09:52:58;;;;;;;6.00;5.40;;;12.90;71.70;;;12.66;57.84;98322.88;5052341;28;20452;-72
2023/02/21 09:55:30;;;;;;;7.40;6.07;;;12.70;72.00;;;12.59;58.01;98325.63;5048050;28;20463;-71
2023/02/21 09:57:57;;;;;;;8.40;5.43;;;12.60;72.40;;;12.51;58.53;98329.44;5047950;28;20980;-71
2023/02/21 10:00:33;;;;;;;8.63;6.43;;;12.50;72.60;;;12.39;58.76;98315.78;5040854;28;20457;-70
2023/02/21 10:03:22;;;;;;;7.63;6.43;;;12.50;72.80;;;12.23;59.04;98316.31;5043854;28;20939;-70
2023/02/21 10:05:58;;;;;;;6.40;5.73;;;12.30;73.00;;;12.43;59.00;98327.00;5043177;28;20453;-71
2023/02/21 10:08:37;;;;;;;7.20;5.90;;;12.30;73.50;;;12.35;59.50;98319.97;5040690;28;20586;-71
2023/02/21 10:11:20;;;;;;;7.00;5.90;;;12.30;73.30;;;12.43;59.34;98319.72;5041131;28;20454;-71
2023/02/21 10:14:00;;;;;;;9.30;6.33;;;12.40;73.50;;;12.28;59.96;98319.19;5054314;28;20474;-70
2023/02/21 10:16:34;;;;;;;9.93;5.90;;;12.20;73.60;;;12.40;59.56;98325.56;5044584;28;20459;-70
2023/02/21 10:19:11;;;;;;;5.70;5.07;;;12.30;73.90;;;12.54;59.22;98323.56;5052538;28;20458;-70
2023/02/21 10:21:44;;;;;;;9.07;6.10;;;12.40;73.90;;;12.70;59.35;98322.22;5043764;28;20452;-71
2023/02/21 10:24:15;;;;;;;7.30;5.53;;;12.60;74.00;;;12.63;59.21;98326.84;5041228;28;21093;-72
2023/02/21 10:26:52;;;;;;;10.40;5.20;;;12.60;73.70;;;12.35;59.82;98325.38;5060214;28;20854;-71
2023/02/21 10:29:24;;;;;;;6.50;5.00;;;12.50;73.60;;;12.75;59.25;98327.78;5039458;28;20476;-70
2023/02/21 10:31:56;;;;;;;8.00;6.10;;;12.60;74.00;;;12.63;59.16;98332.25;5034720;28;20499;-71
2023/02/21 10:34:28;;;;;;;7.13;5.60;;;12.70;73.70;;;12.67;59.37;98325.38;5050494;28;20907;-71
2023/02/21 10:37:04;;;;;;;8.30;5.77;;;12.60;73.70;;;12.20;59.52;98268.81;5041154;28;21037;-69
2023/02/21 10:39:37;;;;;;;6.10;5.50;;;12.50;73.80;;;12.68;59.46;98309.91;5039956;28;20924;-70
2023/02/21 10:42:04;;;;;;;6.00;4.70;;;12.60;74.10;;;13.18;58.30;98312.53;5039563;28;20472;-70
2023/02/21 10:44:35;;;;;;;7.03;6.00;;;12.80;74.00;;;13.49;56.99;98318.09;5046244;28;21275;-71
2023/02/21 10:47:11;;;;;;;5.30;4.80;;;13.30;73.10;;;13.29;57.55;98302.84;5055379;28;20453;-71
2023/02/21 10:49:46;;;;;;;6.47;5.57;;;13.20;73.00;;;13.54;57.41;98306.56;5046097;28;20457;-70
2023/02/21 10:52:19;;;;;;;14.87;6.67;;;13.50;72.80;;;13.60;57.14;98320.06;5052974;28;20465;-71
2023/02/21 10:55:02;;;;;;;5.57;4.67;;;13.60;72.70;;;13.82;56.27;98305.16;5040192;28;20456;-70
2023/02/21 10:57:32;;;;;;;5.83;5.23;;;13.70;72.20;;;13.95;56.80;98309.56;5042818;28;20460;-70
2023/02/21 11:00:08;;;;;;;6.17;4.47;;;13.80;72.30;;;14.29;55.05;98299.88;5049588;28;20468;-72
2023/02/21 11:02:39;;;;;;;5.20;4.70;;;14.10;71.70;;;14.27;55.25;98291.13;5043835;28;20452;-70
2023/02/21 11:05:15;;;;;;;6.47;4.87;;;14.20;71.60;;;14.29;55.54;98304.47;5038549;28;20459;-70
2023/02/21 11:07:59;;;;;;;7.67;4.87;;;14.20;71.40;;;14.10;55.77;98295.56;5041135;28;20445;-70
2023/02/21 11:10:34;;;;;;;5.80;5.20;;;14.10;71.50;;;14.48;54.85;98294.34;5041354;28;20654;-70
2023/02/21 11:13:17;;;;;;;6.40;4.37;;;14.30;71.00;;;14.69;54.33;98292.97;5044698;28;20481;-70
2023/02/21 11:15:45;;;;;;;5.30;4.80;;;14.50;70.60;;;14.36;54.96;98288.91;5042260;28;20506;-71
2023/02/21 11:18:17;;;;;;;4.87;4.30;;;14.30;70.40;;;14.36;55.19;98285.34;5049820;28;20504;-70
2023/02/21 11:20:46;;;;;;;5.20;4.70;;;14.20;71.00;;;14.88;53.70;98276.56;5043277;28;20517;-71
2023/02/21 11:23:27;;;;;;;6.40;4.60;;;14.60;70.60;;;14.19;55.62;98277.06;5040701;28;20509;-71
2023/02/21 11:26:07;;;;;;;6.57;4.40;;;14.60;70.10;;;14.42;55.46;98274.38;5044851;28;20821;-71
2023/02/21 11:28:38;;;;;;;5.27;4.50;;;14.50;70.60;;;14.72;54.65;98273.47;5044564;28;20454;-70
2023/02/21 11:31:14;;;;;;;5.83;4.30;;;14.60;70.50;;;14.44;55.32;98258.66;5041534;28;20458;-70
2023/02/21 11:33:50;;;;;;;4.90;4.43;;;14.50;70.60;;;14.19;56.29;98263.47;5062373;28;20504;-70
2023/02/21 11:36:20;;;;;;;4.70;3.97;;;14.30;70.70;;;14.60;55.36;98250.88;5043775;28;20838;-70
2023/02/21 11:39:05;;;;;;;4.50;4.10;;;14.30;71.10;;;14.57;54.50;98202.41;5060128;28;20449;-70
2023/02/21 11:41:40;;;;;;;4.53;4.13;;;14.60;70.80;;;14.82;54.74;98250.31;5041454;28;20460;-70
2023/02/21 11:44:24;;;;;;;7.33;4.10;;;14.70;70.80;;;14.95;54.53;98247.34;5048149;28;20465;-70
2023/02/21 11:47:04;;;;;;;4.63;3.50;;;14.70;70.30;;;14.56;55.13;98236.09;5039307;28;20492;-71
2023/02/21 11:49:41;;;;;;;4.83;4.20;;;14.70;70.10;;;14.14;56.68;98235.09;5044514;28;20477;-71
2023/02/21 11:52:14;;;;;;;4.37;3.90;;;14.30;70.60;;;13.92;57.06;98231.28;5046239;28;20457;-70
2023/02/21 11:54:44;;;;;;;5.43;3.60;;;14.00;71.30;;;13.92;57.91;98223.94;5042047;28;20454;-70
2023/02/21 11:57:22;;;;;;;3.90;3.47;;;13.80;72.00;;;13.52;58.57;98236.22;5059077;28;21238;-70
2023/02/21 11:59:58;;;;;;;4.30;3.40;;;13.60;72.40;;;13.34;59.35;98228.88;5048146;28;20785;-71
2023/02/21 12:02:51;;;;;;;3.83;3.27;;;13.30;73.30;;;13.35;59.95;98219.72;5042478;28;20460;-70
2023/02/21 12:05:47;;;;;;;4.00;3.17;;;13.30;73.70;;;13.23;60.35;98211.50;5033777;28;20464;-70
2023/02/21 12:08:42;;;;;;;3.20;2.90;;;13.20;74.00;;;13.38;60.28;98223.84;5056893;28;20469;-71
2023/02/21 12:11:35;;;;;;;4.63;2.77;;;13.30;74.20;;;13.24;60.54;98212.34;5043651;28;20467;-71
2023/02/21 12:14:47;;;;;;;3.70;2.60;;;13.20;74.40;;;13.02;61.22;98201.94;5050578;28;20457;-70
2023/02/21 12:17:32;;;;;;;2.90;2.60;;;13.00;74.70;;;13.13;61.17;98197.66;5039606;28;20457;-70
2023/02/21 12:20:22;;;;;;;3.10;2.80;;;13.10;75.30;;;13.21;61.58;98197.34;5057141;28;20514;-70
2023/02/21 12:23:13;;;;;;;3.80;2.60;;;13.20;75.30;;;13.09;60.83;98134.06;5059379;28;20457;-70
2023/02/21 12:25:54;;;;;;;3.00;2.50;;;13.30;75.30;;;13.34;61.00;98184.66;5050315;28;21055;-70
2023/02/21 12:28:38;;;;;;;3.43;2.40;;;13.30;74.90;;;13.39;60.88;98184.78;5077617;28;20451;-70
2023/02/21 12:31:24;;;;;;;3.20;2.27;;;13.30;75.20;;;13.55;60.55;98181.44;5058063;28;20486;-70
2023/02/21 12:34:04;;;;;;;2.40;1.90;;;13.40;75.30;;;13.47;60.65;98179.06;5049016;28;20457;-70
2023/02/21 12:36:48;;;;;;;2.77;2.57;;;13.40;75.10;;;13.68;60.37;98169.59;5055623;28;20550;-70
2023/02/21 12:39:33;;;;;;;3.80;2.20;;;13.50;75.10;;;13.83;59.49;98160.19;5060711;28;20457;-70
2023/02/21 12:42:35;;;;;;;2.43;2.10;;;13.70;74.90;;;13.90;59.18;98150.03;5055795;28;20972;-71
2023/02/21 12:45:21;;;;;;;2.40;2.20;;;13.90;74.70;;;14.05;59.62;98146.88;5044182;28;20803;-69
2023/02/21 12:47:58;;;;;;;4.90;2.07;;;13.90;74.90;;;14.47;58.11;98153.22;5046454;28;20481;-71
2023/02/21 12:50:32;;;;;;;2.97;2.23;;;14.10;74.50;;;14.75;57.52;98138.94;5056620;28;20826;-69
2023/02/21 12:53:03;;;;;;;2.73;2.20;;;14.40;74.10;;;14.74;57.61;98140.00;5044718;28;20448;-70
2023/02/21 12:55:35;;;;;;;3.40;2.10;;;14.60;74.00;;;14.71;56.90;98092.34;5048109;28;20458;-70
2023/02/21 12:58:17;;;;;;;2.10;1.90;;;14.80;73.60;;;15.13;56.33;98123.09;5044367;28;20461;-69
2023/02/21 13:00:52;;;;;;;2.90;1.57;;;14.90;73.30;;;15.20;56.28;98120.22;5055062;28;20456;-69